Terminal Aerodrome Forecast
Issued by NWS

Current Version | Previous Version | Text Only | Print | Product List | Glossary On
Versions: 1 2 3 4 5 6 7 8 9 10 11 12 13
000
FTUS46 KSEW 211740
TAFHQM
TAF
KHQM 211740Z 2118/2218 02008KT 4SM -RA BR FEW012 BKN019 OVC027
      TEMPO 2118/2122 1SM RA BR OVC007
     FM212300 20025G38KT 3SM -RA BR OVC012
     FM220900 22013KT P6SM -SHRA BKN007=

USA.gov is the U.S. government's official web portal to all federal, state and local government web resources and services.